Time;durP1;ratioP1;P1;durP2;ratioP2;P2;SDS_P1;SDS_P2;PMS_P1;PMS_P2;Temp;Humidity;BMP_temperature;BMP_pressure;BME280_temperature;BME280_humidity;BME280_pressure;Samples;Min_cycle;Max_cycle;Signal;HPM_P1;HPM_P2
2024/04/13 00:01:57;;;;;;;48.45;6.65;;;;;;;10.72;100.00;99152.63;5336289;26;20551;-64
2024/04/13 00:04:23;;;;;;;78.47;8.35;;;;;;;10.42;100.00;99154.72;5337486;26;20190;-67
2024/04/13 00:06:49;;;;;;;57.05;7.85;;;;;;;10.48;100.00;99152.28;5336776;26;20465;-62
2024/04/13 00:09:14;;;;;;;43.60;7.22;;;;;;;10.30;100.00;99147.59;5337295;26;20016;-65
2024/04/13 00:11:40;;;;;;;58.92;7.63;;;;;;;10.50;100.00;99144.50;5333841;26;20052;-63
2024/04/13 00:14:06;;;;;;;38.50;7.05;;;;;;;10.69;100.00;99140.41;5342708;26;20017;-67
2024/04/13 00:16:31;;;;;;;79.22;8.85;;;;;;;10.66;100.00;99140.38;5336318;26;20467;-64
2024/04/13 00:18:56;;;;;;;53.42;7.55;;;;;;;10.58;100.00;99142.84;5337987;26;20540;-66
2024/04/13 00:21:22;;;;;;;97.35;10.05;;;;;;;10.62;100.00;99133.41;5334061;26;19996;-67
2024/04/13 00:23:47;;;;;;;54.55;7.82;;;;;;;10.79;100.00;99136.22;5338584;26;20015;-64
2024/04/13 00:26:13;;;;;;;49.58;7.32;;;;;;;10.83;100.00;99139.75;5337802;26;20016;-62
2024/04/13 00:28:38;;;;;;;51.58;7.35;;;;;;;10.52;100.00;99138.47;5338358;26;20248;-64
2024/04/13 00:31:04;;;;;;;84.95;9.75;;;;;;;10.64;100.00;99132.56;5336851;26;19997;-62
2024/04/13 00:33:29;;;;;;;63.10;8.05;;;;;;;10.47;100.00;99134.88;5340283;26;20081;-67
2024/04/13 00:36:03;;;;;;;59.80;8.10;;;;;;;10.35;100.00;99125.16;5338373;26;20021;-67
2024/04/13 00:38:28;;;;;;;63.15;8.73;;;;;;;10.25;100.00;99137.13;5338222;26;20060;-67
2024/04/13 00:40:54;;;;;;;63.63;8.50;;;;;;;10.25;100.00;99134.50;5338922;26;20016;-64
2024/04/13 00:43:20;;;;;;;63.47;8.43;;;;;;;10.24;100.00;99126.72;5335498;26;20000;-64
2024/04/13 00:45:47;;;;;;;45.35;7.78;;;;;;;10.33;100.00;99125.97;5337641;26;20032;-62
2024/04/13 00:48:16;;;;;;;44.25;7.38;;;;;;;10.40;100.00;99125.22;5339401;26;20060;-62
2024/04/13 00:50:47;;;;;;;69.53;8.88;;;;;;;10.18;100.00;99134.41;5342729;26;20000;-67
2024/04/13 00:53:15;;;;;;;50.67;8.00;;;;;;;10.18;100.00;99130.09;5341956;26;20001;-67
2024/04/13 00:55:44;;;;;;;36.15;7.15;;;;;;;10.22;100.00;99123.19;5339937;26;20032;-64
2024/04/13 00:58:13;;;;;;;56.38;8.25;;;;;;;10.28;100.00;99125.88;5342190;26;20000;-65
2024/04/13 01:00:40;;;;;;;79.95;9.25;;;;;;;10.12;100.00;99122.16;5337193;26;20000;-66
2024/04/13 01:03:06;;;;;;;35.38;7.25;;;;;;;10.05;100.00;99129.00;5338573;26;20089;-66
2024/04/13 01:05:33;;;;;;;54.65;8.15;;;;;;;9.95;100.00;99119.28;5338807;26;20012;-66
2024/04/13 01:08:00;;;;;;;48.63;7.68;;;;;;;10.10;100.00;99123.88;5340150;26;20047;-66
2024/04/13 01:10:26;;;;;;;76.03;10.02;;;;;;;10.13;100.00;99123.91;5337234;26;20082;-66
2024/04/13 01:12:51;;;;;;;59.00;8.68;;;;;;;10.21;100.00;99132.72;5336990;26;20034;-66
2024/04/13 01:15:17;;;;;;;37.35;7.13;;;;;;;10.14;100.00;99136.09;5343336;26;20079;-64
2024/04/13 01:17:43;;;;;;;53.30;8.18;;;;;;;9.94;100.00;99136.59;5340793;26;20009;-67
2024/04/13 01:20:12;;;;;;;48.75;7.07;;;;;;;9.89;100.00;99144.34;5344601;26;20015;-64
2024/04/13 01:22:42;;;;;;;58.78;8.55;;;;;;;9.82;100.00;99150.25;5337136;26;20384;-62
2024/04/13 01:25:09;;;;;;;54.35;8.25;;;;;;;9.65;100.00;99147.31;5340217;26;20000;-64
2024/04/13 01:27:35;;;;;;;52.92;8.30;;;;;;;9.66;100.00;99148.22;5339281;26;20016;-63
2024/04/13 01:30:01;;;;;;;46.15;7.47;;;;;;;9.79;100.00;99151.94;5338532;26;20001;-65
2024/04/13 01:32:27;;;;;;;78.13;9.82;;;;;;;9.95;100.00;99146.13;5336999;26;20317;-63
2024/04/13 01:34:52;;;;;;;43.75;7.40;;;;;;;9.81;100.00;99147.63;5333511;26;20073;-67
2024/04/13 01:37:18;;;;;;;51.25;7.90;;;;;;;9.79;100.00;99149.34;5334594;26;20341;-65
2024/04/13 01:39:44;;;;;;;52.58;8.48;;;;;;;9.83;100.00;99152.00;5338521;26;20010;-65
2024/04/13 01:42:09;;;;;;;39.10;7.55;;;;;;;9.85;100.00;99154.63;5340078;26;20437;-67
2024/04/13 01:44:35;;;;;;;62.75;8.65;;;;;;;9.88;100.00;99160.75;5337697;26;20026;-62
2024/04/13 01:47:01;;;;;;;61.75;9.32;;;;;;;9.68;100.00;99146.53;5337895;26;20020;-62
2024/04/13 01:49:26;;;;;;;64.25;8.43;;;;;;;9.70;100.00;99150.91;5337946;26;20000;-62
2024/04/13 01:51:52;;;;;;;56.92;8.30;;;;;;;9.96;100.00;99153.09;5335230;26;20001;-63
2024/04/13 01:54:17;;;;;;;48.97;7.65;;;;;;;9.94;100.00;99149.59;5339156;26;20437;-63
2024/04/13 01:56:42;;;;;;;50.08;7.82;;;;;;;9.96;100.00;99153.09;5336225;26;20011;-66
2024/04/13 01:59:08;;;;;;;47.10;7.40;;;;;;;9.72;100.00;99156.09;5338037;26;20434;-65
2024/04/13 02:01:33;;;;;;;71.47;9.50;;;;;;;9.78;100.00;99148.44;5337722;26;20242;-63
2024/04/13 02:03:59;;;;;;;50.53;7.88;;;;;;;9.63;100.00;99151.63;5338357;26;20016;-67
2024/04/13 02:06:24;;;;;;;42.03;7.75;;;;;;;9.56;100.00;99158.44;5337593;26;20004;-62
2024/04/13 02:08:50;;;;;;;51.47;8.02;;;;;;;9.47;100.00;99155.66;5335170;26;20016;-64
2024/04/13 02:11:16;;;;;;;71.05;8.82;;;;;;;9.35;100.00;99145.88;5340281;26;20649;-65
2024/04/13 02:13:42;;;;;;;38.67;7.30;;;;;;;9.35;100.00;99158.84;5339640;26;20019;-64
2024/04/13 02:16:08;;;;;;;39.53;7.95;;;;;;;9.27;100.00;99157.84;5342943;26;20039;-65
2024/04/13 02:18:34;;;;;;;65.97;9.27;;;;;;;9.45;100.00;99153.03;5343941;26;20000;-63
2024/04/13 02:20:59;;;;;;;59.63;8.43;;;;;;;9.49;100.00;99157.44;5341714;26;20078;-66
2024/04/13 02:23:24;;;;;;;63.70;8.43;;;;;;;9.24;100.00;99154.34;5342621;26;20715;-65
2024/04/13 02:25:50;;;;;;;56.53;8.23;;;;;;;9.40;100.00;99156.38;5343813;26;20000;-66
2024/04/13 02:28:15;;;;;;;42.92;7.60;;;;;;;9.25;100.00;99158.66;5338089;26;20369;-65
2024/04/13 02:30:41;;;;;;;56.42;8.57;;;;;;;9.22;100.00;99150.84;5342716;26;20339;-64
2024/04/13 02:33:06;;;;;;;69.72;9.15;;;;;;;9.27;100.00;99148.31;5339132;26;20345;-64
2024/04/13 02:35:32;;;;;;;60.03;8.65;;;;;;;9.32;100.00;99149.28;5342983;26;19996;-63
2024/04/13 02:37:58;;;;;;;51.92;8.02;;;;;;;9.35;100.00;99156.25;5343704;26;20019;-66
2024/04/13 02:40:23;;;;;;;66.82;9.20;;;;;;;9.41;100.00;99147.72;5338450;26;20017;-64
2024/04/13 02:42:57;;;;;;;45.25;7.93;;;;;;;9.54;100.00;99146.25;5368536;26;20012;-66
2024/04/13 02:45:22;;;;;;;47.53;8.65;;;;;;;9.62;100.00;99157.69;5345002;26;20040;-66
2024/04/13 02:47:50;;;;;;;58.40;9.00;;;;;;;9.58;100.00;99153.28;5341045;26;20422;-65
2024/04/13 02:50:16;;;;;;;43.50;7.38;;;;;;;9.74;100.00;99163.13;5341638;26;20375;-67
2024/04/13 02:52:42;;;;;;;53.55;8.23;;;;;;;9.80;100.00;99153.69;5342713;26;20013;-67
2024/04/13 02:55:07;;;;;;;52.30;7.78;;;;;;;9.44;100.00;99153.88;5340622;26;19997;-66
2024/04/13 02:57:33;;;;;;;44.40;8.13;;;;;;;9.69;100.00;99150.88;5341957;26;20008;-63
2024/04/13 02:59:58;;;;;;;59.97;8.68;;;;;;;9.51;100.00;99140.16;5344720;26;20004;-67
2024/04/13 03:02:24;;;;;;;60.70;8.80;;;;;;;9.43;100.00;99146.06;5340337;26;20345;-64
2024/04/13 03:04:53;;;;;;;48.10;7.50;;;;;;;9.62;100.00;99147.28;5341494;26;21098;-67
2024/04/13 03:07:19;;;;;;;47.50;7.45;;;;;;;9.88;100.00;99144.28;5345106;26;20438;-67
2024/04/13 03:09:47;;;;;;;53.15;7.90;;;;;;;9.88;100.00;99141.69;5337091;26;21895;-67
2024/04/13 03:12:13;;;;;;;44.97;8.02;;;;;;;9.73;100.00;99147.50;5347405;26;19997;-65
2024/04/13 03:14:39;;;;;;;65.97;9.18;;;;;;;9.46;100.00;99139.19;5341639;26;20095;-65
2024/04/13 03:17:04;;;;;;;60.08;8.70;;;;;;;9.31;100.00;99142.34;5338915;26;20049;-64
2024/04/13 03:19:31;;;;;;;58.92;7.90;;;;;;;9.07;100.00;99140.13;5340159;26;20078;-62
2024/04/13 03:21:57;;;;;;;44.88;7.63;;;;;;;9.14;100.00;99136.81;5341711;26;20004;-64
2024/04/13 03:24:23;;;;;;;57.88;8.40;;;;;;;9.08;100.00;99140.16;5336690;26;20052;-65
2024/04/13 03:26:49;;;;;;;35.15;7.28;;;;;;;9.07;100.00;99146.22;5337169;26;20051;-63
2024/04/13 03:29:14;;;;;;;44.70;7.25;;;;;;;9.19;100.00;99139.50;5341712;26;20008;-63
2024/04/13 03:31:41;;;;;;;74.32;8.95;;;;;;;9.10;100.00;99141.06;5335169;26;20078;-67
2024/04/13 03:34:07;;;;;;;32.03;7.20;;;;;;;8.99;100.00;99140.81;5343489;26;20077;-64
2024/04/13 03:36:33;;;;;;;61.85;8.88;;;;;;;9.06;100.00;99136.66;5336788;26;20082;-67
2024/04/13 03:38:59;;;;;;;46.83;7.90;;;;;;;9.10;100.00;99132.41;5335223;26;20870;-65
2024/04/13 03:41:25;;;;;;;68.07;9.52;;;;;;;8.96;100.00;99130.41;5340414;26;20446;-63
2024/04/13 03:43:50;;;;;;;44.70;7.50;;;;;;;8.88;100.00;99131.94;5339481;26;20082;-62
2024/04/13 03:46:15;;;;;;;56.85;8.55;;;;;;;8.79;100.00;99136.91;5337194;26;21072;-62
2024/04/13 03:48:44;;;;;;;67.07;8.57;;;;;;;8.90;100.00;99132.84;5313770;26;20005;-62
2024/04/13 03:51:10;;;;;;;78.47;10.18;;;;;;;8.92;100.00;99133.78;5340969;26;20000;-64
2024/04/13 03:53:36;;;;;;;72.05;9.88;;;;;;;8.74;100.00;99134.22;5338016;26;20001;-66
2024/04/13 03:56:01;;;;;;;56.97;7.80;;;;;;;8.79;100.00;99136.91;5336084;26;20001;-65
2024/04/13 03:58:27;;;;;;;42.72;7.18;;;;;;;9.03;100.00;99133.13;5338643;26;20013;-65
2024/04/13 04:00:52;;;;;;;67.80;9.52;;;;;;;8.99;100.00;99129.59;5334935;26;20001;-64
2024/04/13 04:03:18;;;;;;;49.30;8.18;;;;;;;8.75;100.00;99142.91;5341452;26;20011;-67
2024/04/13 04:05:43;;;;;;;66.10;9.20;;;;;;;8.66;100.00;99138.38;5338268;26;20012;-67
2024/04/13 04:08:08;;;;;;;63.53;8.68;;;;;;;8.73;100.00;99138.53;5337448;26;20354;-65
2024/04/13 04:10:34;;;;;;;64.07;9.35;;;;;;;8.62;100.00;99139.13;5339737;26;20001;-67
2024/04/13 04:13:01;;;;;;;36.30;7.05;;;;;;;8.67;100.00;99145.31;5339897;26;20000;-66
2024/04/13 04:15:26;;;;;;;53.10;8.20;;;;;;;8.72;100.00;99147.16;5340954;26;20000;-65
2024/04/13 04:17:52;;;;;;;42.65;8.00;;;;;;;8.72;100.00;99152.34;5340453;26;20011;-63
2024/04/13 04:20:17;;;;;;;56.30;8.00;;;;;;;9.08;100.00;99153.13;5342339;26;20000;-65
2024/04/13 04:22:42;;;;;;;77.70;10.23;;;;;;;9.10;100.00;99146.25;5338768;26;20012;-64
2024/04/13 04:25:08;;;;;;;37.75;7.78;;;;;;;8.91;100.00;99134.59;5310420;26;20001;-64
2024/04/13 04:27:34;;;;;;;50.38;8.23;;;;;;;9.01;100.00;99127.88;5310874;26;20456;-63
2024/04/13 04:29:59;;;;;;;58.63;8.80;;;;;;;8.91;100.00;99136.34;5338160;26;20011;-62
2024/04/13 04:32:24;;;;;;;43.25;8.02;;;;;;;8.76;100.00;99142.06;5337583;26;20013;-66
2024/04/13 04:34:50;;;;;;;50.45;8.05;;;;;;;8.97;100.00;99146.84;5336874;26;20011;-66
2024/04/13 04:37:15;;;;;;;59.20;8.95;;;;;;;9.09;100.00;99151.41;5339424;26;20009;-65
2024/04/13 04:39:40;;;;;;;81.28;10.38;;;;;;;9.17;100.00;99156.78;5339121;26;20437;-62
2024/04/13 04:42:06;;;;;;;46.90;8.43;;;;;;;9.31;100.00;99159.66;5338914;26;20490;-62
2024/04/13 04:44:32;;;;;;;51.80;8.50;;;;;;;9.30;100.00;99151.00;5338583;26;20701;-62
2024/04/13 04:46:57;;;;;;;56.90;9.00;;;;;;;9.50;100.00;99142.72;5335073;26;20515;-64
2024/04/13 04:49:22;;;;;;;50.20;7.95;;;;;;;9.57;100.00;99131.59;5338433;26;20011;-66
2024/04/13 04:51:47;;;;;;;74.57;9.45;;;;;;;9.68;100.00;99136.16;5337417;26;20008;-66
2024/04/13 04:54:13;;;;;;;58.28;9.30;;;;;;;10.04;100.00;99137.63;5342812;26;20012;-67
2024/04/13 04:56:38;;;;;;;37.67;7.15;;;;;;;10.07;100.00;99139.41;5337084;26;20005;-67
2024/04/13 04:59:04;;;;;;;40.47;7.95;;;;;;;10.48;100.00;99126.25;5339489;26;20015;-66
2024/04/13 05:01:29;;;;;;;52.20;8.35;;;;;;;10.78;100.00;99122.34;5338858;26;20604;-63
2024/04/13 05:03:55;;;;;;;34.28;7.55;;;;;;;10.98;100.00;99116.53;5335513;26;20029;-66
2024/04/13 05:06:20;;;;;;;42.78;7.28;;;;;;;10.76;100.00;99124.03;5340402;26;20005;-63
2024/04/13 05:08:47;;;;;;;91.15;10.65;;;;;;;11.27;100.00;99123.84;5333353;26;20039;-63
2024/04/13 05:11:14;;;;;;;54.45;8.23;;;;;;;11.44;100.00;99120.56;5339795;26;20515;-64
2024/04/13 05:13:40;;;;;;;63.20;8.50;;;;;;;11.43;100.00;99116.22;5337869;26;20041;-67
2024/04/13 05:16:09;;;;;;;65.65;8.68;;;;;;;11.43;100.00;99116.22;5368407;26;20477;-67
2024/04/13 05:18:37;;;;;;;42.75;7.47;;;;;;;11.18;100.00;99123.75;5337719;26;20008;-67
2024/04/13 05:21:03;;;;;;;72.95;9.00;;;;;;;10.90;100.00;99128.56;5335332;26;20001;-63
2024/04/13 05:23:29;;;;;;;48.25;7.30;;;;;;;11.11;100.00;99130.59;5336916;26;19996;-62
2024/04/13 05:25:54;;;;;;;51.03;7.90;;;;;;;11.33;100.00;99123.91;5334327;26;20408;-64
2024/04/13 05:28:21;;;;;;;50.85;7.95;;;;;;;11.54;100.00;99127.63;5337519;26;20028;-67
2024/04/13 05:30:55;;;;;;;69.57;8.85;;;;;;;12.04;100.00;99127.25;5334739;26;20012;-67
2024/04/13 05:33:25;;;;;;;48.67;7.60;;;;;;;12.10;100.00;99136.03;5340792;26;20065;-63
2024/04/13 05:35:50;;;;;;;92.47;10.80;;;;;;;11.94;100.00;99136.69;5333093;26;21584;-63
2024/04/13 05:38:16;;;;;;;46.45;7.95;;;;;;;12.16;100.00;99137.81;5335012;26;20012;-66
2024/04/13 05:40:42;;;;;;;59.90;8.48;;;;;;;12.73;100.00;99133.91;5335245;26;20419;-63
2024/04/13 05:43:07;;;;;;;52.90;7.80;;;;;;;12.80;100.00;99137.41;5338337;26;20001;-65
2024/04/13 05:45:36;;;;;;;33.50;7.13;;;;;;;13.27;100.00;99148.97;5344680;26;20040;-63
2024/04/13 05:48:02;;;;;;;38.88;7.80;;;;;;;12.53;100.00;99137.22;5343018;26;20487;-67
2024/04/13 05:50:27;;;;;;;59.67;8.23;;;;;;;14.19;100.00;99141.38;5341817;26;20004;-68
2024/04/13 05:52:54;;;;;;;47.42;7.88;;;;;;;14.07;100.00;99142.25;5339067;26;20073;-63
2024/04/13 05:55:20;;;;;;;39.40;8.13;;;;;;;14.08;100.00;99145.72;5340782;26;20116;-68
2024/04/13 05:57:45;;;;;;;74.75;10.05;;;;;;;14.24;100.00;99146.59;5338595;26;20009;-67
2024/04/13 06:00:11;;;;;;;48.97;9.13;;;;;;;15.32;100.00;99140.31;5368643;26;20074;-67
2024/04/13 06:02:37;;;;;;;38.42;8.45;;;;;;;17.38;100.00;99137.78;5340519;26;20001;-67
2024/04/13 06:05:03;;;;;;;44.58;8.88;;;;;;;17.92;100.00;99147.56;5341314;26;20460;-67
2024/04/13 06:07:28;;;;;;;50.47;9.25;;;;;;;17.89;100.00;99138.84;5341334;26;20009;-67
2024/04/13 06:09:53;;;;;;;40.55;8.48;;;;;;;18.55;100.00;99139.56;5339484;26;20016;-66
2024/04/13 06:12:19;;;;;;;47.88;8.35;;;;;;;20.26;92.34;99129.91;5337234;26;20009;-67
2024/04/13 06:14:49;;;;;;;33.25;6.80;;;;;;;20.94;74.29;99137.00;5338635;26;20008;-68
2024/04/13 06:17:14;;;;;;;37.22;7.25;;;;;;;21.27;74.88;99131.66;5340304;26;20008;-66
2024/04/13 06:19:40;;;;;;;63.90;10.45;;;;;;;21.66;71.37;99121.69;5342352;26;20020;-67
2024/04/13 06:22:08;;;;;;;36.03;8.35;;;;;;;22.11;65.08;99128.25;5340260;26;20818;-68
2024/04/13 06:24:36;;;;;;;32.67;7.40;;;;;;;24.81;52.28;99119.03;5339496;26;20082;-68
2024/04/13 06:27:02;;;;;;;45.03;8.70;;;;;;;23.23;53.56;99120.91;5338347;26;20135;-67
2024/04/13 06:29:27;;;;;;;36.05;7.72;;;;;;;22.21;58.75;99131.47;5339935;26;20001;-68
2024/04/13 06:31:53;;;;;;;50.30;9.77;;;;;;;23.49;57.36;99127.91;5337907;26;20000;-64
2024/04/13 06:34:18;;;;;;;45.83;9.05;;;;;;;23.98;54.12;99131.34;5345968;26;20016;-67
2024/04/13 06:36:44;;;;;;;43.85;8.70;;;;;;;22.71;60.80;99130.69;5335575;26;20793;-64
2024/04/13 06:39:14;;;;;;;33.55;8.02;;;;;;;24.43;54.63;99132.19;5340553;26;20001;-63
2024/04/13 06:41:40;;;;;;;45.38;9.07;;;;;;;23.86;54.10;99120.28;5335614;26;20016;-63
2024/04/13 06:44:05;;;;;;;28.73;7.97;;;;;;;24.80;51.33;99116.44;5341058;26;20004;-67
2024/04/13 06:46:31;;;;;;;27.23;7.57;;;;;;;26.28;46.69;99116.75;5338243;26;20019;-67
2024/04/13 06:48:56;;;;;;;36.42;8.65;;;;;;;27.60;43.55;99119.63;5336727;26;20414;-65
2024/04/13 06:51:22;;;;;;;44.20;10.38;;;;;;;28.07;43.25;99112.56;5338480;26;20000;-66
2024/04/13 06:53:48;;;;;;;41.25;8.75;;;;;;;28.17;40.30;99118.22;5337158;26;20469;-67
2024/04/13 06:56:14;;;;;;;38.40;8.68;;;;;;;29.99;37.77;99123.16;5335528;26;20007;-64
2024/04/13 06:58:40;;;;;;;26.70;7.43;;;;;;;30.59;37.28;99116.56;5336507;26;20038;-64
2024/04/13 07:01:05;;;;;;;28.52;8.25;;;;;;;27.57;39.73;99128.66;5337817;26;19997;-69
2024/04/13 07:03:30;;;;;;;28.85;7.88;;;;;;;31.08;37.72;99122.19;5336053;26;20601;-67
2024/04/13 07:06:00;;;;;;;30.58;7.90;;;;;;;31.69;34.62;99122.28;5335988;26;23797;-65
2024/04/13 07:08:26;;;;;;;23.90;6.75;;;;;;;33.48;33.25;99128.53;5334564;26;20049;-67
2024/04/13 07:10:54;;;;;;;55.60;9.80;;;;;;;35.08;30.59;99133.28;5332821;26;20000;-68
2024/04/13 07:13:20;;;;;;;28.77;7.90;;;;;;;33.22;32.90;99135.03;5338606;26;21272;-67
2024/04/13 07:15:45;;;;;;;40.83;8.85;;;;;;;34.00;31.67;99138.75;5338615;26;20190;-66
2024/04/13 07:18:10;;;;;;;38.33;8.32;;;;;;;32.99;32.31;99136.88;5341092;26;20427;-68
2024/04/13 07:20:36;;;;;;;18.65;6.53;;;;;;;34.38;31.11;99140.09;5338492;26;19997;-68
2024/04/13 07:23:01;;;;;;;17.98;6.45;;;;;;;33.86;31.23;99142.59;5332061;26;20000;-65
2024/04/13 07:25:28;;;;;;;30.02;7.60;;;;;;;35.65;29.89;99140.06;5336707;26;20005;-69
2024/04/13 07:27:53;;;;;;;38.92;8.75;;;;;;;35.85;29.47;99127.44;5334613;26;20004;-67
2024/04/13 07:30:19;;;;;;;24.77;6.72;;;;;;;36.40;28.55;99134.16;5339503;26;20015;-68
2024/04/13 07:32:44;;;;;;;31.55;7.30;;;;;;;36.58;28.64;99134.28;5338955;26;20008;-67
2024/04/13 07:35:09;;;;;;;22.08;6.43;;;;;;;36.45;28.51;99134.59;5341560;26;20007;-69
2024/04/13 07:37:35;;;;;;;18.52;5.50;;;;;;;36.63;28.58;99136.56;5340056;26;20013;-67
2024/04/13 07:40:00;;;;;;;23.98;6.65;;;;;;;35.80;29.09;99132.41;5336912;26;20051;-68
2024/04/13 07:42:26;;;;;;;28.95;7.10;;;;;;;34.98;30.23;99132.34;5333284;26;20530;-68
2024/04/13 07:44:52;;;;;;;37.78;7.95;;;;;;;35.78;29.43;99137.97;5337303;26;20005;-67
2024/04/13 07:47:17;;;;;;;28.33;7.20;;;;;;;33.86;30.48;99127.28;5341914;26;19996;-68
2024/04/13 07:49:43;;;;;;;39.25;8.45;;;;;;;33.98;30.91;99135.31;5338552;26;20016;-65
2024/04/13 07:52:08;;;;;;;24.85;6.55;;;;;;;33.99;31.31;99126.25;5337204;26;20000;-68
2024/04/13 07:54:33;;;;;;;18.63;5.97;;;;;;;32.71;33.29;99130.94;5341535;26;20001;-68
2024/04/13 07:56:59;;;;;;;34.28;7.78;;;;;;;35.12;30.58;99129.31;5333303;26;20022;-66
2024/04/13 07:59:24;;;;;;;27.88;6.85;;;;;;;34.61;30.89;99131.00;5336812;26;20005;-66
2024/04/13 08:01:49;;;;;;;37.73;7.50;;;;;;;37.03;28.36;99122.91;5334107;26;20015;-67
2024/04/13 08:04:15;;;;;;;38.20;7.43;;;;;;;35.54;29.79;99119.34;5337575;26;20231;-68
2024/04/13 08:06:40;;;;;;;23.70;6.25;;;;;;;36.90;28.58;99113.25;5338943;26;20000;-66
2024/04/13 08:09:05;;;;;;;26.05;6.43;;;;;;;37.16;28.30;99118.03;5343388;26;20023;-67
2024/04/13 08:11:32;;;;;;;33.77;6.67;;;;;;;35.62;29.00;99119.53;5342369;26;20019;-67
2024/04/13 08:13:58;;;;;;;45.15;7.70;;;;;;;34.85;30.42;99119.97;5339636;26;20231;-65
2024/04/13 08:16:24;;;;;;;27.70;6.65;;;;;;;38.21;27.39;99115.97;5338337;26;20403;-68
2024/04/13 08:18:50;;;;;;;50.30;7.80;;;;;;;35.37;30.48;99115.47;5338475;26;20020;-64
2024/04/13 08:21:15;;;;;;;42.38;7.22;;;;;;;35.30;30.39;99107.06;5335093;26;20016;-67
2024/04/13 08:23:40;;;;;;;21.10;5.40;;;;;;;36.84;28.70;99108.41;5338265;26;19996;-68
2024/04/13 08:26:06;;;;;;;33.85;6.75;;;;;;;34.79;31.35;99105.13;5366589;26;20032;-67
2024/04/13 08:28:32;;;;;;;21.10;5.85;;;;;;;37.51;28.08;99099.25;5313758;26;20012;-66
2024/04/13 08:30:57;;;;;;;67.00;9.63;;;;;;;34.47;30.67;99099.78;5336772;26;20006;-66
2024/04/13 08:33:22;;;;;;;30.10;6.57;;;;;;;34.14;31.48;99103.38;5340051;26;20000;-67
2024/04/13 08:36:08;;;;;;;47.17;7.90;;;;;;;33.45;32.72;99096.44;5339807;26;20407;-65
2024/04/13 08:38:33;;;;;;;20.70;5.60;;;;;;;34.57;30.51;99100.69;5333745;26;20227;-65
2024/04/13 08:41:13;;;;;;;66.10;9.73;;;;;;;34.63;30.87;99100.19;5332287;26;20015;-68
2024/04/13 08:43:38;;;;;;;20.73;5.88;;;;;;;36.85;28.32;99092.00;5335466;26;20015;-68
2024/04/13 08:46:07;;;;;;;37.65;7.25;;;;;;;38.57;27.29;99088.72;5336570;26;20001;-67
2024/04/13 08:48:36;;;;;;;26.85;6.00;;;;;;;40.03;25.72;99085.25;5338315;26;20579;-67
2024/04/13 08:51:01;;;;;;;58.00;8.68;;;;;;;40.00;26.24;99082.84;5328854;26;20579;-66
2024/04/13 08:53:29;;;;;;;33.80;7.10;;;;;;;36.47;28.73;99080.25;5338202;26;20090;-66
2024/04/13 08:55:57;;;;;;;34.22;6.90;;;;;;;37.37;27.88;99078.97;5334928;26;20407;-67
2024/04/13 08:58:25;;;;;;;22.95;5.90;;;;;;;36.71;28.55;99079.81;5333474;26;20009;-66
2024/04/13 09:00:53;;;;;;;41.28;7.80;;;;;;;37.59;27.63;99068.69;5336250;26;20529;-65
2024/04/13 09:03:21;;;;;;;28.35;6.13;;;;;;;35.41;29.94;99068.25;5337271;26;20331;-65
2024/04/13 09:05:46;;;;;;;38.97;7.13;;;;;;;36.63;28.87;99060.69;5336705;26;20015;-68
2024/04/13 09:08:14;;;;;;;28.30;5.93;;;;;;;36.35;29.34;99063.31;5337261;26;19996;-68
2024/04/13 09:10:42;;;;;;;24.27;5.00;;;;;;;36.74;29.55;99065.09;5337352;26;20431;-66
2024/04/13 09:13:08;;;;;;;37.65;6.57;;;;;;;38.41;27.42;99074.00;5335653;26;20001;-67
2024/04/13 09:15:34;;;;;;;26.25;5.57;;;;;;;35.89;29.60;99066.63;5336536;26;20103;-67
2024/04/13 09:17:59;;;;;;;53.42;7.80;;;;;;;35.98;30.00;99062.19;5334407;26;19996;-67
2024/04/13 09:20:26;;;;;;;36.25;6.00;;;;;;;35.73;29.71;99066.31;5341010;26;20051;-68
2024/04/13 09:22:53;;;;;;;51.63;8.05;;;;;;;37.24;28.22;99049.47;5338728;26;20361;-68
2024/04/13 09:25:20;;;;;;;23.90;5.80;;;;;;;36.05;29.99;99049.81;5341790;26;19996;-66
2024/04/13 09:27:45;;;;;;;37.58;7.22;;;;;;;36.80;28.98;99041.94;5329372;26;20005;-66
2024/04/13 09:30:13;;;;;;;24.92;6.13;;;;;;;37.73;27.67;99049.16;5323256;26;20016;-65
2024/04/13 09:32:38;;;;;;;26.05;5.70;;;;;;;35.25;30.72;99044.44;5334832;26;20467;-66
2024/04/13 09:35:11;;;;;;;52.60;7.80;;;;;;;36.25;29.64;99036.25;5335940;26;20097;-66
2024/04/13 09:37:36;;;;;;;23.35;5.40;;;;;;;37.28;28.61;99037.31;5376376;26;20459;-67
2024/04/13 09:40:06;;;;;;;50.47;7.80;;;;;;;35.90;29.91;99034.97;5369527;26;20004;-65
2024/04/13 09:42:32;;;;;;;30.20;6.13;;;;;;;36.01;29.76;99036.69;5367783;26;20008;-66
2024/04/13 09:45:04;;;;;;;52.40;8.25;;;;;;;37.24;28.26;99027.78;5369722;26;20000;-65
2024/04/13 09:47:30;;;;;;;30.02;6.55;;;;;;;37.86;27.77;99026.19;5333271;26;20349;-66
2024/04/13 09:49:55;;;;;;;55.30;8.37;;;;;;;36.15;29.28;99017.34;5333406;26;20454;-67
2024/04/13 09:52:21;;;;;;;33.67;6.67;;;;;;;35.26;30.58;99013.72;5335804;26;20578;-68
2024/04/13 09:54:47;;;;;;;30.05;5.90;;;;;;;34.44;31.73;99010.94;5338269;26;20242;-65
2024/04/13 09:57:14;;;;;;;38.08;7.07;;;;;;;34.52;31.34;99008.44;5337518;26;20046;-65
2024/04/13 09:59:42;;;;;;;29.27;6.05;;;;;;;35.33;31.11;99001.34;5342371;26;20040;-67
2024/04/13 10:02:09;;;;;;;26.20;5.75;;;;;;;34.65;31.39;98997.41;5331386;26;20040;-68
2024/04/13 10:04:34;;;;;;;27.05;5.93;;;;;;;34.10;32.69;98993.97;5337879;26;20566;-65
2024/04/13 10:07:02;;;;;;;63.42;8.70;;;;;;;35.12;31.10;98994.16;5334750;26;20077;-65
2024/04/13 10:09:32;;;;;;;29.08;6.05;;;;;;;35.63;30.32;98983.28;5335643;26;20070;-67
2024/04/13 10:12:00;;;;;;;65.68;10.23;;;;;;;36.01;31.21;98985.25;5330327;26;20372;-68
2024/04/13 10:14:26;;;;;;;26.55;6.07;;;;;;;36.98;28.71;98982.38;5342575;26;20521;-68
2024/04/13 10:17:01;;;;;;;50.95;7.90;;;;;;;34.27;31.89;98983.56;5330896;26;20396;-66
2024/04/13 10:19:28;;;;;;;37.20;6.60;;;;;;;33.32;32.88;98973.44;5339891;26;20052;-65
2024/04/13 10:22:00;;;;;;;48.80;7.60;;;;;;;32.54;33.36;98970.72;5330709;26;20005;-68
2024/04/13 10:24:29;;;;;;;35.15;6.82;;;;;;;33.44;33.21;98963.47;5333720;26;20000;-66
2024/04/13 10:27:08;;;;;;;69.70;10.13;;;;;;;33.78;33.11;98965.19;5336180;26;20001;-65
2024/04/13 10:29:43;;;;;;;41.55;6.75;;;;;;;32.77;34.02;98965.31;5335007;26;20048;-67
2024/04/13 10:32:15;;;;;;;33.55;6.40;;;;;;;32.80;33.75;98963.22;5331304;26;20496;-65
2024/04/13 10:34:41;;;;;;;39.25;6.85;;;;;;;33.82;33.12;98958.56;5340252;26;20016;-64
2024/04/13 10:37:22;;;;;;;63.85;9.50;;;;;;;33.56;33.18;98968.84;5334359;26;20396;-67
2024/04/13 10:39:58;;;;;;;22.50;5.68;;;;;;;32.73;33.12;98962.88;5336239;26;20456;-65
2024/04/13 10:42:37;;;;;;;31.75;6.10;;;;;;;31.63;35.04;98963.25;5337954;26;20048;-67
2024/04/13 10:45:09;;;;;;;68.47;9.48;;;;;;;33.60;33.17;98960.38;5333235;26;20013;-66
2024/04/13 10:47:38;;;;;;;28.65;6.00;;;;;;;32.76;33.52;98951.00;5370582;26;20018;-65
2024/04/13 10:50:04;;;;;;;63.53;8.85;;;;;;;33.63;32.26;98951.19;5368378;26;20000;-64
2024/04/13 10:52:29;;;;;;;45.80;7.30;;;;;;;34.05;31.95;98957.53;5364575;26;20019;-65
2024/04/13 10:54:58;;;;;;;57.25;8.35;;;;;;;32.20;33.97;98944.59;5368685;26;20366;-66
2024/04/13 10:57:24;;;;;;;36.40;6.75;;;;;;;31.93;35.29;98943.09;5338046;26;20753;-65
2024/04/13 10:59:50;;;;;;;48.50;8.02;;;;;;;32.44;35.08;98940.94;5338565;26;20007;-68
2024/04/13 11:02:15;;;;;;;36.47;6.97;;;;;;;32.04;35.04;98937.75;5338184;26;20000;-65
2024/04/13 11:04:44;;;;;;;26.23;6.35;;;;;;;33.38;33.92;98940.59;5338070;26;20404;-65
2024/04/13 11:07:14;;;;;;;42.92;7.68;;;;;;;32.67;34.67;98930.19;5336388;26;19997;-65
2024/04/13 11:09:40;;;;;;;29.67;6.15;;;;;;;33.08;34.16;98923.28;5336611;26;20011;-67
2024/04/13 11:12:15;;;;;;;59.80;8.95;;;;;;;32.67;34.16;98914.03;5362546;26;20346;-67
2024/04/13 11:14:40;;;;;;;34.75;6.72;;;;;;;30.92;36.12;98914.66;5338345;26;20028;-67
2024/04/13 11:17:05;;;;;;;62.08;9.25;;;;;;;30.86;36.36;98911.56;5337129;26;20015;-64
2024/04/13 11:19:31;;;;;;;26.77;6.30;;;;;;;30.99;37.28;98914.22;5340412;26;20023;-65
2024/04/13 11:22:00;;;;;;;70.40;10.00;;;;;;;30.25;38.10;98913.16;5332244;26;20016;-68